DW9418 Weather Reports


time (UTC)temp
C
wind
direction
speed
KPH
gust
KPH
rain 1hr
cm
rain 24hr
cm
rain mn
cm
humidity
%
barometer
mb
20260506124745 -17 0.0 0.0 0.00 0.00 0.00
20260506123745 -17 0.0 0.0 0.00 0.00 0.00
20260506122745 -17 0.0 0.0 0.00 0.00 0.00
20260506121810 -17 0.0 0.0 0.00 0.00 0.00
20260506120745 -17 0.0 0.0 0.00 0.00 0.00
20260506115745 -17 0.0 0.0 0.00 0.00 0.00
20260506114746 -17 0.0 0.0 0.00 0.00 0.00
20260506113812 -17 0.0 0.0 0.00 0.00 0.00
20260506112533 -17 0.0 0.0 0.00 0.00 0.00
20260506112137 24 0.0 0.0 0.00 0.00 0.00 90 1008.7
20260506111747 24 90 1.6 4.8 0.00 0.00 0.00 90 1008.7
20260506110747 24 90 1.6 3.2 0.00 0.00 0.00 90 1008.6
20260506105747 24 90 1.6 4.8 0.00 0.00 0.00 90 1008.5
20260506104747 24 68 1.6 4.8 0.00 0.00 0.00 90 1008.5
20260506103747 24 0.0 3.2 0.00 0.00 0.00 90 1008.4
20260506102812 24 90 1.6 3.2 0.00 0.00 0.00 90 1008.2
20260506101747 24 90 1.6 4.8 0.00 0.00 0.00 90 1008.1
20260506100747 24 90 1.6 4.8 0.00 0.00 0.00 90 1008.0
20260506095747 24 158 1.6 8.0 0.00 0.00 0.00 90 1007.9
20260506094745 24 135 3.2 6.4 0.00 0.00 0.00 90 1007.8
20260506093747 24 113 4.8 9.7 0.00 0.00 0.00 90 1007.7
20260506092810 24 158 3.2 8.0 0.00 0.00 0.00 90 1007.6
20260506091747 24 158 3.2 12.9 0.00 0.00 0.00 90
20260506090747 24 68 1.6 6.4 0.00 0.00 0.00 90
20260506085747 24 68 3.2 12.9 0.00 0.00 0.00 90
20260506084747 24 135 3.2 11.3 0.00 0.00 0.00 90
20260506083746 24 90 3.2 9.7 0.00 0.00 0.00 89
20260506082747 24 113 3.2 11.3 0.00 0.00 0.00 89
20260506081746 24 113 3.2 12.9 0.00 0.00 0.00 89
20260506080747 24 113 3.2 9.7 0.00 0.00 0.00 89
20260506072812 24 135 3.2 9.7 0.00 0.00 0.00 89
20260506071811 24 90 3.2 12.9 0.00 0.00 0.00 89
20260506070811 24 90 1.6 9.7 0.00 0.00 0.00 89
20260506061746 24 158 3.2 11.3 0.00 0.00 0.00 89
20260506060746 24 90 1.6 6.4 0.00 0.00 0.00 89
20260506050746 25 135 3.2 14.5 0.00 0.00 0.00 87
20260506044747 25 113 4.8 11.3 0.00 0.00 0.00 87
20260506043746 25 113 4.8 8.0 0.00 0.00 0.00 86
20260506042746 25 135 4.8 11.3 0.00 0.00 0.00 86
20260506041747 25 135 3.2 12.9 0.00 0.00 0.00 86
20260506040747 25 68 3.2 11.3 0.00 0.00 0.00 85
20260506035746 25 90 3.2 17.7 0.00 0.00 0.00 85
20260506034746 25 90 4.8 12.9 0.00 0.00 0.00 85
20260506033811 26 68 3.2 11.3 0.00 0.00 0.00 84
20260506032747 26 90 3.2 11.3 0.00 0.00 0.00 84
20260506031746 26 90 3.2 11.3 0.00 0.00 0.00 83
20260506030746 26 68 3.2 8.0 0.00 0.00 0.00 83
20260506025746 26 135 3.2 11.3 0.00 0.00 0.00 82
20260506024747 26 135 4.8 11.3 0.00 0.00 0.00 82
20260506023747 26 68 3.2 11.3 0.00 0.00 0.00 81
20260506022810 26 68 4.8 16.1 0.00 0.00 0.00 80
20260506021746 27 68 4.8 14.5 0.00 0.00 0.00 78
20260506020746 27 90 3.2 8.0 0.00 0.00 0.00 78
20260506015746 27 68 3.2 11.3 0.00 0.00 0.00 77
20260506014746 27 68 3.2 8.0 0.00 0.00 0.00 76
20260506013746 27 68 1.6 6.4 0.00 0.00 0.00 75
20260506012747 28 90 1.6 9.7 0.00 0.00 0.00 75
20260506011746 28 113 1.6 4.8 0.00 0.00 0.00 74
20260506010811 28 113 1.6 4.8 0.00 0.00 0.00 73
20260506005746 28 90 1.6 4.8 0.00 0.00 0.00 72
20260506004746 28 90 1.6 9.7 0.00 0.00 0.00 72
20260506003746 28 68 1.6 4.8 0.00 0.00 0.00 72
20260506002746 29 68 1.6 9.7 0.00 0.00 0.00 71
20260506001812 29 68 1.6 4.8 0.00 0.00 0.00 71
20260506000746 29 68 1.6 8.0 0.00 0.00 0.00 70
20260505235746 29 90 3.2 11.3 0.00 0.00 0.00 70
20260505234811 29 68 1.6 6.4 0.00 0.00 0.00 70
20260505233746 29 135 1.6 4.8 0.00 0.00 0.00 70
20260505232746 30 113 4.8 16.1 0.00 0.00 0.00 68 1005.3
20260505231746 30 90 1.6 8.0 0.00 0.00 0.00 68 1005.3
20260505230746 30 158 4.8 11.3 0.00 0.00 0.00 68 1005.2
20260505225811 30 113 1.6 11.3 0.00 0.00 0.00 69 1005.1
20260505224811 30 90 4.8 11.3 0.00 0.00 0.00 68 1005.1
20260505223746 30 113 4.8 16.1 0.00 0.00 0.00 67 1005.1
20260505222811 30 135 4.8 14.5 0.00 0.00 0.00 66 1005.2
20260505221746 30 135 6.4 14.5 0.00 0.00 0.00 65 1005.2
20260505220746 30 68 4.8 16.1 0.00 0.00 0.00 66 1005.2
20260505215746 30 90 3.2 11.3 0.00 0.00 0.00 65 1005.4
20260505214746 30 90 3.2 9.7 0.00 0.00 0.00 65 1005.7
20260505213746 31 68 4.8 11.3 0.00 0.00 0.00 63 1005.9
20260505212746 31 158 3.2 6.4 0.00 0.00 0.00 64 1005.8
20260505211745 -17 0.0 0.0 0.00 0.00 0.00
20260505210745 -17 0.0 0.0 0.00 0.00 0.00
20260505205745 -17 0.0 0.0 0.00 0.00 0.00
20260505204746 -17 0.0 0.0 0.00 0.00 0.00
20260505203745 -17 0.0 0.0 0.00 0.00 0.00
20260505202745 -17 0.0 0.0 0.00 0.00 0.00
20260505201745 -17 0.0 0.0 0.00 0.00 0.00
20260505200745 -17 0.0 0.0 0.00 0.00 0.00
20260505195745 -17 0.0 0.0 0.00 0.00 0.00
20260505194810 -17 0.0 0.0 0.00 0.00 0.00
20260505193745 -17 0.0 0.0 0.00 0.00 0.00
20260505192745 -17 0.0 0.0 0.00 0.00 0.00
20260505191745 -17 0.0 0.0 0.00 0.00 0.00
20260505190745 -17 0.0 0.0 0.00 0.00 0.00
20260505185745 -17 0.0 0.0 0.00 0.00 0.00
20260505184745 -17 0.0 0.0 0.00 0.00 0.00
20260505183745 -17 0.0 0.0 0.00 0.00 0.00
20260505182745 -17 0.0 0.0 0.00 0.00 0.00
20260505181745 -17 0.0 0.0 0.00 0.00 0.00
20260505180745 -17 0.0 0.0 0.00 0.00 0.00
20260505175810 -17 0.0 0.0 0.00 0.00 0.00
20260505174745 -17 0.0 0.0 0.00 0.00 0.00
20260505173745 -17 0.0 0.0 0.00 0.00 0.00
20260505172833 -17 0.0 0.0 0.00 0.00 0.00
20260505171745 -17 0.0 0.0 0.00 0.00 0.00
20260505170745 -17 0.0 0.0 0.00 0.00 0.00
20260505165745 -17 0.0 0.0 0.00 0.00 0.00
20260505164745 -17 0.0 0.0 0.00 0.00 0.00
20260505163745 -17 0.0 0.0 0.00 0.00 0.00
20260505162745 -17 0.0 0.0 0.00 0.00 0.00
20260505161835 -17 0.0 0.0 0.00 0.00 0.00
20260505160745 -17 0.0 0.0 0.00 0.00 0.00
20260505152745 -17 0.0 0.0 0.00 0.00 0.00
20260505151745 -17 0.0 0.0 0.00 0.00 0.00
20260505150810 -17 0.0 0.0 0.00 0.00 0.00